Time;durP1;ratioP1;P1;durP2;ratioP2;P2;SDS_P1;SDS_P2;PMS_P1;PMS_P2;Temp;Humidity;BMP_temperature;BMP_pressure;BME280_temperature;BME280_humidity;BME280_pressure;Samples;Min_cycle;Max_cycle;Signal;HPM_P1;HPM_P2
2023/04/09 00:01:43;;;;;;;187.13;170.40;;;;;;;5.27;100.00;101619.28;6213434;23;20017;-93
2023/04/09 00:04:10;;;;;;;189.20;172.02;;;;;;;5.28;100.00;101626.19;6212966;23;20024;-93
2023/04/09 00:06:37;;;;;;;184.52;167.75;;;;;;;5.28;100.00;101625.38;6213241;23;20016;-92
2023/04/09 00:09:04;;;;;;;188.95;171.50;;;;;;;5.23;100.00;101627.63;6213258;23;20012;-93
2023/04/09 00:11:31;;;;;;;198.18;179.57;;;;;;;5.11;100.00;101634.06;6213062;23;20065;-92
2023/04/09 00:13:58;;;;;;;176.05;158.63;;;;;;;5.19;100.00;101626.28;6213575;23;20013;-93
2023/04/09 00:16:27;;;;;;;216.73;196.60;;;;;;;5.10;100.00;101625.34;6213086;23;20481;-91
2023/04/09 00:18:55;;;;;;;186.48;167.57;;;;;;;5.20;100.00;101633.19;6212431;23;20021;-93
2023/04/09 00:21:22;;;;;;;196.57;177.38;;;;;;;5.17;100.00;101629.03;6212902;23;20028;-94
2023/04/09 00:23:49;;;;;;;210.73;192.00;;;;;;;5.10;100.00;101630.63;6212569;23;20428;-94
2023/04/09 00:26:16;;;;;;;190.30;172.48;;;;;;;5.21;100.00;101633.06;6213090;23;20028;-91
2023/04/09 00:28:43;;;;;;;191.27;174.10;;;;;;;5.21;100.00;101629.59;6212851;23;20020;-92
2023/04/09 00:31:10;;;;;;;187.38;170.98;;;;;;;5.12;100.00;101635.75;6213034;23;20013;-94
2023/04/09 00:33:38;;;;;;;199.30;182.15;;;;;;;4.95;100.00;101632.09;6211807;23;20016;-93
2023/04/09 00:36:05;;;;;;;175.77;160.18;;;;;;;4.98;100.00;101637.06;6212892;23;20401;-92
2023/04/09 00:38:32;;;;;;;176.73;161.00;;;;;;;5.09;100.00;101630.78;6212686;23;20381;-93
2023/04/09 00:41:02;;;;;;;191.20;174.50;;;;;;;5.09;100.00;101638.69;6212869;23;20473;-92
2023/04/09 00:43:29;;;;;;;233.90;213.73;;;;;;;4.97;100.00;101630.97;6212750;23;20479;-94
2023/04/09 00:45:56;;;;;;;225.10;206.90;;;;;;;5.20;100.00;101638.47;6212512;23;20025;-93
2023/04/09 00:48:23;;;;;;;192.75;176.25;;;;;;;5.04;100.00;101639.94;6212389;23;20021;-93
2023/04/09 00:50:52;;;;;;;183.55;166.85;;;;;;;5.29;100.00;101629.66;6212366;23;20020;-93
2023/04/09 00:53:20;;;;;;;177.15;160.73;;;;;;;5.18;100.00;101633.34;6212388;23;20017;-94
2023/04/09 00:55:47;;;;;;;207.88;189.57;;;;;;;5.30;100.00;101631.34;6212571;23;20031;-93
2023/04/09 00:58:14;;;;;;;198.73;181.13;;;;;;;5.26;100.00;101643.13;6212144;23;20020;-93
2023/04/09 01:00:41;;;;;;;204.32;186.15;;;;;;;5.34;100.00;101632.69;6212079;23;20462;-92
2023/04/09 01:03:08;;;;;;;208.80;190.18;;;;;;;5.32;100.00;101629.38;6212005;23;20013;-92
2023/04/09 01:05:41;;;;;;;217.32;198.70;;;;;;;5.52;100.00;101627.44;6212398;23;20370;-92
2023/04/09 01:08:16;;;;;;;206.88;188.95;;;;;;;5.44;100.00;101619.44;6212057;23;20474;-91
2023/04/09 01:10:52;;;;;;;229.43;210.18;;;;;;;5.46;100.00;101628.03;6212000;23;20020;-92
2023/04/09 01:13:26;;;;;;;191.35;174.18;;;;;;;5.41;100.00;101625.84;6212571;23;20070;-93
2023/04/09 01:15:57;;;;;;;195.20;178.10;;;;;;;5.29;100.00;101624.41;6211993;23;20020;-95
2023/04/09 01:18:31;;;;;;;225.75;206.95;;;;;;;5.44;100.00;101622.91;6212702;23;20016;-95
2023/04/09 01:21:01;;;;;;;209.82;191.45;;;;;;;5.41;100.00;101617.94;6212982;23;20024;-95
2023/04/09 01:23:42;;;;;;;210.27;191.95;;;;;;;5.36;100.00;101622.00;6211988;23;20031;-93
2023/04/09 01:26:19;;;;;;;211.95;193.65;;;;;;;5.41;100.00;101625.84;6211974;23;20016;-95
2023/04/09 01:28:53;;;;;;;205.65;187.55;;;;;;;5.31;100.00;101621.63;6212110;23;20020;-93
2023/04/09 01:31:21;;;;;;;193.95;176.77;;;;;;;5.35;100.00;101621.16;6212239;23;20020;-94
2023/04/09 01:33:49;;;;;;;221.32;202.35;;;;;;;5.45;100.00;101626.38;6211764;23;20017;-95
2023/04/09 01:36:16;;;;;;;236.95;216.50;;;;;;;5.47;100.00;101614.69;6212092;23;20019;-93
2023/04/09 01:38:44;;;;;;;205.52;187.07;;;;;;;5.36;100.00;101622.84;6212094;23;20017;-95
2023/04/09 01:41:15;;;;;;;209.45;190.15;;;;;;;5.25;100.00;101623.88;6212506;23;20036;-92
2023/04/09 01:43:43;;;;;;;193.98;176.18;;;;;;;5.30;100.00;101618.16;6212464;23;20035;-92
2023/04/09 01:46:12;;;;;;;208.32;189.77;;;;;;;5.35;100.00;101610.63;6214039;23;20016;-93
2023/04/09 01:48:40;;;;;;;230.35;210.77;;;;;;;5.25;100.00;101623.88;6214006;23;20025;-93
2023/04/09 01:51:07;;;;;;;245.70;224.93;;;;;;;5.27;100.00;101615.84;6214005;23;20024;-91
2023/04/09 01:53:34;;;;;;;230.00;209.98;;;;;;;5.05;100.00;101619.69;6214139;23;20017;-92
2023/04/09 01:56:02;;;;;;;235.85;215.07;;;;;;;5.00;100.00;101617.50;6214271;23;20088;-93
2023/04/09 01:58:32;;;;;;;231.25;211.73;;;;;;;5.02;100.00;101610.31;6214263;23;20019;-92
2023/04/09 02:01:05;;;;;;;176.30;158.90;;;;;;;5.11;100.00;101618.28;6213707;23;20020;-93
2023/04/09 02:03:38;;;;;;;223.10;203.55;;;;;;;5.00;100.00;101608.78;6214268;23;20020;-94
2023/04/09 02:06:12;;;;;;;234.05;214.52;;;;;;;5.07;100.00;101609.84;6214352;23;20016;-92
2023/04/09 02:08:40;;;;;;;212.65;194.00;;;;;;;4.54;100.00;101614.00;6214152;23;20477;-94
2023/04/09 02:11:10;;;;;;;183.43;165.93;;;;;;;4.59;100.00;101603.03;6214723;23;20023;-92
2023/04/09 02:13:40;;;;;;;207.23;189.05;;;;;;;4.45;100.00;101612.22;6214370;23;20877;-93
2023/04/09 02:16:08;;;;;;;193.90;176.38;;;;;;;4.50;100.00;101614.41;6214045;23;20028;-93
2023/04/09 02:18:37;;;;;;;200.88;183.00;;;;;;;4.62;100.00;101613.25;6213926;23;20083;-92
2023/04/09 02:21:04;;;;;;;220.80;202.60;;;;;;;4.51;100.00;101600.31;6214571;23;20039;-93
2023/04/09 02:23:32;;;;;;;226.02;207.10;;;;;;;3.98;100.00;101609.56;6214339;23;20048;-93
2023/04/09 02:26:00;;;;;;;208.55;190.23;;;;;;;4.21;100.00;101609.28;6214819;23;20059;-92
2023/04/09 02:28:26;;;;;;;188.07;171.52;;;;;;;4.01;100.00;101603.22;6214413;23;20021;-92
2023/04/09 02:30:54;;;;;;;201.75;184.68;;;;;;;3.93;100.00;101609.16;6213961;23;20068;-93
2023/04/09 02:33:21;;;;;;;149.98;135.50;;;;;;;3.88;100.00;101609.59;6213209;23;20044;-92
2023/04/09 02:35:49;;;;;;;157.75;142.80;;;;;;;3.88;100.00;101614.84;6213792;23;20079;-93
2023/04/09 02:38:16;;;;;;;147.52;133.40;;;;;;;4.04;100.00;101618.69;6214106;23;20016;-91
2023/04/09 02:40:43;;;;;;;152.20;137.95;;;;;;;3.83;100.00;101614.44;6213873;23;20016;-91
2023/04/09 02:43:10;;;;;;;164.48;149.43;;;;;;;3.81;100.00;101615.53;6214060;23;20020;-92
2023/04/09 02:45:37;;;;;;;140.93;127.43;;;;;;;3.82;100.00;101619.84;6213662;23;20024;-93
2023/04/09 02:48:04;;;;;;;151.90;137.95;;;;;;;3.80;100.00;101622.59;6213898;23;20023;-94
2023/04/09 02:50:31;;;;;;;154.18;140.45;;;;;;;3.71;100.00;101619.97;6213237;23;20075;-93
2023/04/09 02:53:02;;;;;;;132.30;119.93;;;;;;;3.33;100.00;101614.59;6213801;23;20019;-92
2023/04/09 02:55:29;;;;;;;127.47;115.28;;;;;;;3.21;100.00;101616.50;6213920;23;20021;-92
2023/04/09 02:57:56;;;;;;;125.20;113.45;;;;;;;3.33;100.00;101621.59;6214486;23;20330;-92
2023/04/09 03:00:23;;;;;;;128.35;116.10;;;;;;;3.18;100.00;101629.06;6214063;23;20016;-93
2023/04/09 03:02:50;;;;;;;118.40;107.07;;;;;;;2.89;100.00;101631.59;6213956;23;20481;-93
2023/04/09 03:05:18;;;;;;;119.78;108.43;;;;;;;2.87;100.00;101633.53;6214149;23;20021;-92
2023/04/09 03:07:46;;;;;;;123.30;111.70;;;;;;;3.03;100.00;101627.78;6214181;23;20020;-94
2023/04/09 03:10:14;;;;;;;125.15;113.68;;;;;;;2.97;100.00;101631.78;6213522;23;20421;-93
2023/04/09 03:12:43;;;;;;;142.55;130.10;;;;;;;2.92;100.00;101636.59;6213905;23;20028;-92
2023/04/09 03:15:11;;;;;;;111.25;99.97;;;;;;;2.98;100.00;101636.88;6213342;23;20021;-92
2023/04/09 03:17:37;;;;;;;111.22;100.43;;;;;;;2.95;100.00;101624.03;6213699;23;20016;-93
2023/04/09 03:20:06;;;;;;;120.43;108.82;;;;;;;2.71;100.00;101634.03;6213712;23;20029;-92
2023/04/09 03:22:36;;;;;;;131.60;119.03;;;;;;;2.58;100.00;101631.63;6213458;23;20020;-93
2023/04/09 03:25:03;;;;;;;129.50;116.70;;;;;;;2.60;100.00;101632.31;6213535;23;20016;-93
2023/04/09 03:27:32;;;;;;;115.65;104.07;;;;;;;2.90;100.00;101641.97;6213405;23;20046;-93
2023/04/09 03:29:59;;;;;;;104.68;94.07;;;;;;;2.65;100.00;101639.81;6213587;23;20017;-93
2023/04/09 03:32:26;;;;;;;118.47;107.22;;;;;;;2.48;100.00;101636.84;6213535;23;20040;-93
2023/04/09 03:34:53;;;;;;;110.28;99.38;;;;;;;2.28;100.00;101638.50;6213860;23;20019;-93
2023/04/09 03:37:20;;;;;;;104.20;93.82;;;;;;;2.31;100.00;101644.47;6213380;23;20027;-92
2023/04/09 03:39:47;;;;;;;91.95;82.28;;;;;;;2.31;100.00;101642.66;6212794;23;20013;-92
2023/04/09 03:42:14;;;;;;;95.90;86.28;;;;;;;2.53;100.00;101653.00;6213265;23;20021;-92
2023/04/09 03:44:42;;;;;;;105.25;95.10;;;;;;;2.26;100.00;101653.53;6212867;23;20017;-92
2023/04/09 03:47:09;;;;;;;95.18;85.43;;;;;;;2.44;100.00;101650.31;6212766;23;20070;-93
2023/04/09 03:49:36;;;;;;;94.40;84.88;;;;;;;2.51;100.00;101654.06;6212681;23;20016;-92
2023/04/09 03:52:03;;;;;;;89.70;80.57;;;;;;;2.41;100.00;101650.59;6213131;23;20043;-93
2023/04/09 03:54:30;;;;;;;91.78;82.60;;;;;;;2.45;100.00;101654.59;6212770;23;20073;-92
2023/04/09 03:56:57;;;;;;;88.72;79.85;;;;;;;2.41;100.00;101661.06;6213293;23;20027;-93
2023/04/09 03:59:25;;;;;;;98.70;89.10;;;;;;;2.76;100.00;101663.34;6213051;23;20025;-93
2023/04/09 04:01:53;;;;;;;95.78;86.47;;;;;;;2.77;100.00;101658.91;6213106;23;20020;-91
2023/04/09 04:04:20;;;;;;;95.55;86.00;;;;;;;2.74;100.00;101671.31;6213788;23;20032;-94
2023/04/09 04:06:47;;;;;;;96.88;87.45;;;;;;;2.63;100.00;101665.31;6214069;23;20028;-94
2023/04/09 04:09:14;;;;;;;92.65;83.40;;;;;;;2.76;100.00;101671.19;6213205;23;20028;-93
2023/04/09 04:11:41;;;;;;;89.25;80.35;;;;;;;2.87;100.00;101673.72;6213278;23;20020;-94
2023/04/09 04:14:08;;;;;;;93.60;83.95;;;;;;;2.80;100.00;101672.59;6213556;23;20017;-92
2023/04/09 04:16:35;;;;;;;92.75;83.28;;;;;;;2.84;100.00;101667.91;6213043;23;20029;-93
2023/04/09 04:19:03;;;;;;;106.68;96.32;;;;;;;2.71;100.00;101662.88;6213049;23;20040;-92
2023/04/09 04:21:30;;;;;;;105.68;94.85;;;;;;;2.71;100.00;101673.38;6213569;23;20017;-93
2023/04/09 04:23:57;;;;;;;100.70;89.97;;;;;;;2.75;100.00;101670.38;6213562;23;20020;-93
2023/04/09 04:26:25;;;;;;;106.97;95.28;;;;;;;2.74;100.00;101670.50;6213043;23;20039;-93
2023/04/09 04:28:51;;;;;;;100.03;89.30;;;;;;;2.75;100.00;101669.53;6212331;23;20016;-92
2023/04/09 04:31:18;;;;;;;118.47;103.05;;;;;;;2.61;100.00;101659.41;6212681;23;20474;-92
2023/04/09 04:33:45;;;;;;;180.75;144.45;;;;;;;2.44;100.00;101671.31;6213370;23;20027;-93
2023/04/09 04:36:14;;;;;;;155.88;125.15;;;;;;;2.73;100.00;101669.66;6212301;23;20021;-94
2023/04/09 04:38:42;;;;;;;180.43;129.75;;;;;;;2.80;100.00;101677.00;6212720;23;20024;-93
2023/04/09 04:41:10;;;;;;;178.95;129.23;;;;;;;2.87;100.00;101667.63;6212586;23;20013;-93
2023/04/09 04:43:37;;;;;;;121.75;104.93;;;;;;;2.98;100.00;101672.81;6212705;23;20017;-94
2023/04/09 04:46:04;;;;;;;133.38;110.82;;;;;;;3.00;100.00;101667.44;6212628;23;20024;-93
2023/04/09 04:48:32;;;;;;;115.68;102.30;;;;;;;3.17;100.00;101672.84;6212657;23;20032;-91
2023/04/09 04:51:00;;;;;;;108.43;97.05;;;;;;;3.40;100.00;101668.22;6212798;23;20024;-94
2023/04/09 04:53:28;;;;;;;104.03;92.97;;;;;;;3.48;100.00;101671.94;6212967;23;20012;-93
2023/04/09 04:55:55;;;;;;;103.00;93.10;;;;;;;3.84;100.00;101659.94;6213252;23;20020;-92
2023/04/09 04:58:22;;;;;;;106.60;95.85;;;;;;;3.77;100.00;101669.34;6212183;23;20024;-93
2023/04/09 05:00:49;;;;;;;103.57;93.55;;;;;;;3.89;100.00;101671.69;6212547;23;20421;-93
2023/04/09 05:03:16;;;;;;;106.40;96.05;;;;;;;3.94;100.00;101663.41;6212350;23;20036;-92
2023/04/09 05:05:44;;;;;;;118.55;107.88;;;;;;;3.99;100.00;101669.06;6212929;23;20012;-93
2023/04/09 05:08:11;;;;;;;115.20;104.53;;;;;;;4.23;100.00;101667.78;6213013;23;20082;-95
2023/04/09 05:10:43;;;;;;;113.32;102.93;;;;;;;4.39;100.00;101672.47;6212315;23;20019;-95
2023/04/09 05:13:10;;;;;;;105.15;95.38;;;;;;;4.62;100.00;101667.69;6213048;23;20124;-95
2023/04/09 05:15:41;;;;;;;113.55;102.82;;;;;;;4.80;100.00;101681.75;6212775;23;20103;-95
2023/04/09 05:18:08;;;;;;;109.63;99.75;;;;;;;4.88;100.00;101681.88;6212472;23;20024;-95
2023/04/09 05:20:35;;;;;;;112.10;102.35;;;;;;;5.03;100.00;101674.31;6212225;23;20032;-93
2023/04/09 05:23:02;;;;;;;116.53;106.28;;;;;;;5.13;100.00;101685.63;6212673;23;20456;-95
2023/04/09 05:25:29;;;;;;;116.15;105.75;;;;;;;5.15;100.00;101675.78;6212810;23;20023;-94
2023/04/09 05:27:58;;;;;;;117.60;107.50;;;;;;;5.43;100.00;101676.59;6213640;23;20023;-95
2023/04/09 05:30:25;;;;;;;121.97;111.22;;;;;;;5.63;100.00;101674.66;6212750;23;20020;-93
2023/04/09 05:32:52;;;;;;;129.77;117.97;;;;;;;5.69;100.00;101671.41;6211033;23;20017;-91
2023/04/09 05:35:19;;;;;;;125.05;113.57;;;;;;;5.74;100.00;101677.03;6212520;23;20493;-93
2023/04/09 05:37:46;;;;;;;121.63;110.68;;;;;;;5.89;100.00;101681.78;6212708;23;20023;-92
2023/04/09 05:40:13;;;;;;;127.88;116.65;;;;;;;6.07;100.00;101679.19;6212845;23;20023;-95
2023/04/09 05:42:40;;;;;;;117.72;107.57;;;;;;;6.16;100.00;101683.53;6212171;23;20017;-93
2023/04/09 05:45:10;;;;;;;123.78;113.38;;;;;;;6.09;100.00;101682.50;6212650;23;20477;-95
2023/04/09 05:47:37;;;;;;;131.98;121.57;;;;;;;6.38;100.00;101677.78;6212170;23;20530;-93
2023/04/09 05:50:04;;;;;;;128.77;118.18;;;;;;;6.38;100.00;101684.84;6212224;23;20017;-93
2023/04/09 05:52:31;;;;;;;133.20;122.65;;;;;;;6.69;100.00;101685.22;6212134;23;20017;-92
2023/04/09 05:55:02;;;;;;;144.20;132.05;;;;;;;6.78;100.00;101681.63;6212680;23;20021;-92
2023/04/09 05:57:30;;;;;;;137.98;126.82;;;;;;;6.96;100.00;101678.06;6212606;23;20020;-92
2023/04/09 05:59:57;;;;;;;138.93;128.18;;;;;;;6.77;100.00;101679.97;6212164;23;20023;-93
2023/04/09 06:02:25;;;;;;;125.68;116.10;;;;;;;7.14;100.00;101678.81;6213981;23;20069;-92
2023/04/09 06:04:52;;;;;;;116.32;106.55;;;;;;;7.45;100.00;101672.97;6211858;23;20516;-93
2023/04/09 06:07:19;;;;;;;128.77;118.78;;;;;;;7.68;100.00;101678.44;6212045;23;20016;-93
2023/04/09 06:09:46;;;;;;;141.45;130.48;;;;;;;7.80;100.00;101677.94;6212638;23;20039;-93
2023/04/09 06:12:13;;;;;;;132.27;122.25;;;;;;;7.68;100.00;101671.31;6210541;23;20489;-94
2023/04/09 06:14:40;;;;;;;124.55;114.88;;;;;;;7.55;100.00;101671.00;6212203;23;20027;-92
2023/04/09 06:17:07;;;;;;;132.90;122.57;;;;;;;8.12;100.00;101673.66;6211571;23;20020;-93
2023/04/09 06:19:36;;;;;;;134.20;124.18;;;;;;;8.31;100.00;101679.59;6212392;23;20025;-93
2023/04/09 06:22:03;;;;;;;140.98;130.45;;;;;;;8.79;100.00;101678.69;6211766;23;20017;-92
2023/04/09 06:24:31;;;;;;;118.63;110.13;;;;;;;8.70;100.00;101677.06;6212193;23;20024;-92
2023/04/09 06:26:58;;;;;;;108.68;101.00;;;;;;;8.87;100.00;101677.84;6211772;23;20028;-92
2023/04/09 06:29:25;;;;;;;96.10;89.30;;;;;;;9.12;100.00;101681.22;6212006;23;20500;-92
2023/04/09 06:31:52;;;;;;;79.63;73.47;;;;;;;9.51;100.00;101675.88;6213088;23;20013;-91
2023/04/09 06:34:19;;;;;;;81.65;75.85;;;;;;;9.62;100.00;101682.59;6214182;23;20476;-92
2023/04/09 06:36:47;;;;;;;75.18;67.60;;;;;;;9.67;100.00;101677.59;6213609;23;20023;-92
2023/04/09 06:39:14;;;;;;;120.45;84.90;;;;;;;9.59;100.00;101677.63;6213267;23;20020;-93
2023/04/09 06:41:41;;;;;;;81.28;69.47;;;;;;;9.62;100.00;101667.53;6213539;23;20024;-92
2023/04/09 06:44:08;;;;;;;64.53;59.33;;;;;;;10.03;100.00;101669.03;6212818;23;20078;-93
2023/04/09 06:46:35;;;;;;;77.53;71.72;;;;;;;10.09;100.00;101668.31;6213065;23;20028;-92
2023/04/09 06:49:02;;;;;;;87.55;80.78;;;;;;;10.46;100.00;101669.31;6213783;23;20024;-94
2023/04/09 06:51:29;;;;;;;83.47;77.65;;;;;;;10.78;100.00;101668.16;6213644;23;20021;-91
2023/04/09 06:53:57;;;;;;;102.25;94.97;;;;;;;10.89;100.00;101664.19;6213833;23;20024;-92
2023/04/09 06:56:24;;;;;;;68.50;63.50;;;;;;;10.73;100.00;101668.69;6213952;23;20020;-94
2023/04/09 06:58:51;;;;;;;37.88;34.90;;;;;;;10.74;100.00;101670.34;6213352;23;20017;-94
2023/04/09 07:01:18;;;;;;;36.10;33.15;;;;;;;10.90;100.00;101665.84;6213039;23;20374;-92
2023/04/09 07:03:46;;;;;;;42.72;39.30;;;;;;;11.38;100.00;101667.03;6213663;23;20020;-92
2023/04/09 07:06:13;;;;;;;40.78;37.35;;;;;;;11.08;100.00;101662.81;6213925;23;20358;-91
2023/04/09 07:08:40;;;;;;;40.53;37.15;;;;;;;11.42;100.00;101660.31;6213742;23;20024;-93
2023/04/09 07:11:08;;;;;;;37.03;34.17;;;;;;;11.41;100.00;101656.03;6213645;23;20370;-92
2023/04/09 07:13:35;;;;;;;40.20;37.03;;;;;;;11.81;100.00;101666.25;6213217;23;20034;-92
2023/04/09 07:16:02;;;;;;;44.72;41.05;;;;;;;11.97;100.00;101659.84;6213078;23;20016;-93
2023/04/09 07:18:30;;;;;;;51.15;46.65;;;;;;;12.04;100.00;101653.56;6213838;23;20016;-93
2023/04/09 07:20:57;;;;;;;48.65;44.53;;;;;;;12.14;100.00;101658.56;6213487;23;20012;-92
2023/04/09 07:23:24;;;;;;;42.47;38.92;;;;;;;12.30;100.00;101666.25;6213287;23;20027;-92
2023/04/09 07:25:51;;;;;;;40.22;36.95;;;;;;;12.43;100.00;101656.69;6213626;23;20076;-93
2023/04/09 07:28:20;;;;;;;40.58;36.60;;;;;;;12.24;100.00;101655.56;6212631;23;20051;-92
2023/04/09 07:30:46;;;;;;;40.42;36.80;;;;;;;12.59;100.00;101662.56;6212952;23;20237;-93
2023/04/09 07:33:13;;;;;;;39.63;36.17;;;;;;;12.73;100.00;101665.28;6213293;23;20082;-93
2023/04/09 07:35:40;;;;;;;51.20;45.80;;;;;;;12.65;100.00;101666.28;6213482;23;20485;-92
2023/04/09 07:38:07;;;;;;;38.42;35.13;;;;;;;12.83;100.00;101665.78;6212974;23;20028;-92
2023/04/09 07:40:35;;;;;;;35.80;33.00;;;;;;;12.72;100.00;101668.97;6212782;23;20039;-92
2023/04/09 07:43:02;;;;;;;32.33;29.73;;;;;;;12.67;100.00;101658.09;6212961;23;20373;-92
2023/04/09 07:45:30;;;;;;;34.83;31.90;;;;;;;12.76;100.00;101665.72;6213139;23;20072;-93
2023/04/09 07:47:57;;;;;;;32.40;29.70;;;;;;;13.08;100.00;101663.41;6213399;23;20016;-93
2023/04/09 07:50:24;;;;;;;37.92;34.83;;;;;;;13.48;100.00;101664.38;6212859;23;20020;-93
2023/04/09 07:52:51;;;;;;;39.88;36.00;;;;;;;13.71;100.00;101665.88;6212230;23;20079;-92
2023/04/09 07:55:19;;;;;;;31.48;29.23;;;;;;;13.38;100.00;101668.47;6213286;23;20021;-92
2023/04/09 07:57:47;;;;;;;30.83;28.45;;;;;;;13.29;100.00;101668.66;6215610;23;20023;-94
2023/04/09 08:00:14;;;;;;;25.52;23.48;;;;;;;13.42;100.00;101667.03;6213829;23;20020;-94
2023/04/09 08:02:43;;;;;;;26.00;23.80;;;;;;;12.97;100.00;101664.78;6213439;23;20546;-93
2023/04/09 08:05:10;;;;;;;27.88;25.75;;;;;;;13.41;100.00;101670.75;6218549;23;20020;-94
2023/04/09 08:07:37;;;;;;;28.30;26.23;;;;;;;12.95;100.00;101672.19;6214253;23;20021;-93
2023/04/09 08:10:05;;;;;;;28.30;25.95;;;;;;;13.47;100.00;101675.28;6211661;23;20017;-93
2023/04/09 08:12:32;;;;;;;23.65;21.83;;;;;;;13.44;100.00;101673.00;6212681;23;20028;-94
2023/04/09 08:15:02;;;;;;;22.42;20.48;;;;;;;13.50;100.00;101670.34;6212235;23;20020;-95
2023/04/09 08:17:30;;;;;;;25.35;23.13;;;;;;;13.72;100.00;101667.50;6211386;23;20025;-93
2023/04/09 08:20:01;;;;;;;21.73;20.02;;;;;;;12.80;100.00;101664.31;6211835;23;20021;-94
2023/04/09 08:22:28;;;;;;;29.30;27.02;;;;;;;12.79;100.00;101672.50;6212693;23;20043;-93
2023/04/09 08:24:56;;;;;;;26.25;24.13;;;;;;;13.49;100.00;101667.88;6211029;23;20022;-92
2023/04/09 08:27:23;;;;;;;25.88;23.88;;;;;;;12.90;100.00;101665.78;6214830;23;20370;-94
2023/04/09 08:29:51;;;;;;;25.88;23.88;;;;;;;14.18;100.00;101656.00;6214540;23;20020;-93
2023/04/09 08:32:18;;;;;;;27.27;25.10;;;;;;;14.43;100.00;101659.69;6212780;23;20024;-93
2023/04/09 08:34:45;;;;;;;29.75;27.25;;;;;;;14.12;100.00;101660.31;6214912;23;20028;-93
2023/04/09 08:37:13;;;;;;;25.92;23.70;;;;;;;14.56;100.00;101650.03;6213421;23;20020;-93
2023/04/09 08:39:40;;;;;;;24.75;22.75;;;;;;;14.82;100.00;101657.94;6213371;23;20021;-93
2023/04/09 08:42:08;;;;;;;23.85;21.90;;;;;;;12.38;100.00;101655.47;6213366;23;20017;-93
2023/04/09 08:44:35;;;;;;;24.73;22.83;;;;;;;12.67;100.00;101664.22;6213593;23;20017;-92
2023/04/09 08:47:08;;;;;;;26.63;24.42;;;;;;;14.54;100.00;101655.56;6213306;23;20615;-93
2023/04/09 08:49:36;;;;;;;26.23;23.92;;;;;;;15.19;100.00;101652.88;6212820;23;20040;-93
2023/04/09 08:52:03;;;;;;;24.80;22.80;;;;;;;14.79;100.00;101645.00;6211483;23;20099;-93
2023/04/09 08:54:34;;;;;;;27.45;25.02;;;;;;;15.03;100.00;101646.13;6212684;23;20020;-93
2023/04/09 08:57:05;;;;;;;27.88;25.67;;;;;;;15.32;100.00;101643.94;6213126;23;20496;-93
2023/04/09 08:59:35;;;;;;;25.88;23.85;;;;;;;15.50;100.00;101645.91;6213916;23;20025;-93
2023/04/09 09:02:10;;;;;;;23.48;21.58;;;;;;;15.14;100.00;101636.63;6214043;23;20528;-93
2023/04/09 09:04:52;;;;;;;25.50;23.42;;;;;;;15.28;100.00;101646.25;6214060;23;20017;-93
2023/04/09 09:07:19;;;;;;;27.30;25.02;;;;;;;15.72;100.00;101647.22;6210895;23;20082;-93
2023/04/09 09:09:56;;;;;;;26.48;24.38;;;;;;;15.98;98.92;101640.84;6209210;23;20040;-92
2023/04/09 09:12:32;;;;;;;25.60;23.60;;;;;;;14.60;100.00;101635.19;6213485;23;20021;-94
2023/04/09 09:14:59;;;;;;;26.55;24.27;;;;;;;15.07;100.00;101644.69;6209038;23;20016;-94
2023/04/09 09:17:26;;;;;;;25.52;23.52;;;;;;;14.05;100.00;101640.81;6210047;23;20031;-92
2023/04/09 09:19:53;;;;;;;26.67;24.48;;;;;;;15.64;100.00;101633.22;6211283;23;20021;-93
2023/04/09 09:22:20;;;;;;;27.10;24.98;;;;;;;14.86;100.00;101643.13;6210030;23;20428;-92
2023/04/09 09:24:48;;;;;;;26.77;24.52;;;;;;;15.99;96.75;101634.44;6211096;23;20020;-92
2023/04/09 09:27:32;;;;;;;26.65;24.45;;;;;;;16.15;100.00;101634.91;6210650;23;20020;-93
2023/04/09 09:29:59;;;;;;;25.98;23.70;;;;;;;16.54;86.45;101640.91;6210686;23;20078;-93
2023/04/09 09:32:26;;;;;;;27.67;25.25;;;;;;;16.47;84.73;101632.94;6212597;23;20016;-93
2023/04/09 09:35:04;;;;;;;26.73;24.42;;;;;;;16.75;89.94;101632.41;6213161;23;20027;-92
2023/04/09 09:37:31;;;;;;;27.42;25.33;;;;;;;16.27;89.09;101635.81;6212235;23;20020;-93
2023/04/09 09:39:59;;;;;;;25.90;23.70;;;;;;;16.40;82.38;101633.03;6213416;23;20027;-93
2023/04/09 09:42:32;;;;;;;26.90;24.77;;;;;;;16.92;94.17;101641.53;6215995;23;20017;-93
2023/04/09 09:45:00;;;;;;;26.73;24.63;;;;;;;16.17;95.67;101635.50;6213225;23;20020;-92
2023/04/09 09:47:30;;;;;;;28.33;26.13;;;;;;;16.65;91.11;101629.44;6212605;23;20016;-93
2023/04/09 09:49:57;;;;;;;29.92;27.52;;;;;;;17.37;83.94;101635.75;6211392;23;20024;-93
2023/04/09 09:52:26;;;;;;;29.50;27.20;;;;;;;16.17;84.29;101630.97;6211644;23;20076;-93
2023/04/09 09:54:55;;;;;;;26.02;24.02;;;;;;;17.00;72.45;101624.28;6212785;23;20017;-94
2023/04/09 09:57:28;;;;;;;29.48;26.98;;;;;;;16.38;85.16;101626.22;6213476;23;20091;-92
2023/04/09 10:00:02;;;;;;;31.00;28.02;;;;;;;14.27;100.00;101628.03;6213121;23;20082;-92
2023/04/09 10:02:40;;;;;;;26.50;24.40;;;;;;;16.22;89.51;101619.59;6215625;23;20072;-93
2023/04/09 10:05:09;;;;;;;26.00;23.85;;;;;;;17.11;71.69;101617.34;6215794;23;20032;-93
2023/04/09 10:07:37;;;;;;;25.92;23.77;;;;;;;16.70;74.37;101622.38;6215424;23;20024;-94
2023/04/09 10:10:07;;;;;;;28.05;25.52;;;;;;;16.82;81.43;101627.81;6217421;23;20017;-93
2023/04/09 10:12:35;;;;;;;29.45;26.95;;;;;;;16.72;77.90;101625.63;6214193;23;20021;-93
2023/04/09 10:15:05;;;;;;;28.77;26.40;;;;;;;16.39;72.52;101612.59;6215243;23;20413;-92
2023/04/09 10:17:32;;;;;;;29.52;26.92;;;;;;;15.77;91.74;101620.59;6215420;23;20027;-92
2023/04/09 10:20:10;;;;;;;25.67;23.67;;;;;;;16.77;70.55;101602.72;6215197;23;20012;-92
2023/04/09 10:22:38;;;;;;;26.30;24.30;;;;;;;15.99;82.39;101615.66;6216816;23;20013;-94
2023/04/09 10:25:06;;;;;;;26.70;24.70;;;;;;;13.77;100.00;101613.47;6215338;23;20019;-93
2023/04/09 10:27:33;;;;;;;27.08;24.92;;;;;;;15.14;100.00;101612.56;6216022;23;20028;-95
2023/04/09 10:30:04;;;;;;;26.23;24.13;;;;;;;14.96;100.00;101604.41;6217071;23;20040;-93
2023/04/09 10:32:36;;;;;;;26.30;23.75;;;;;;;15.88;82.92;101602.16;6217431;23;20020;-93
2023/04/09 10:35:04;;;;;;;28.48;26.08;;;;;;;14.85;98.73;101589.84;6215959;23;20044;-93
2023/04/09 10:37:31;;;;;;;28.42;26.23;;;;;;;14.20;100.00;101597.84;6214751;23;20023;-92
2023/04/09 10:40:01;;;;;;;26.27;24.30;;;;;;;15.11;93.46;101596.94;6214603;23;20044;-93
2023/04/09 10:42:39;;;;;;;26.48;24.20;;;;;;;14.60;100.00;101587.91;6216633;23;20456;-94
2023/04/09 10:45:10;;;;;;;24.42;22.35;;;;;;;15.59;97.96;101596.41;6217342;23;20020;-94
2023/04/09 10:47:39;;;;;;;26.02;23.80;;;;;;;15.12;92.98;101598.56;6214491;23;20442;-94
2023/04/09 10:50:17;;;;;;;25.10;23.00;;;;;;;16.25;94.05;101585.13;6216677;23;20019;-93
2023/04/09 10:52:44;;;;;;;25.48;23.38;;;;;;;14.75;98.65;101586.81;6216753;23;20017;-93
2023/04/09 10:55:35;;;;;;;26.25;24.02;;;;;;;15.24;97.37;101585.31;6216361;23;20369;-94
2023/04/09 10:58:05;;;;;;;26.77;24.67;;;;;;;14.70;99.81;101576.75;6218308;23;20078;-93
2023/04/09 11:00:38;;;;;;;26.30;24.00;;;;;;;16.07;86.01;101577.06;6221418;23;20027;-93
2023/04/09 11:03:21;;;;;;;;;;;;;;;16.96;80.67;101577.50;6224480;23;20016;-95
2023/04/09 11:05:52;;;;;;;27.15;24.63;;;;;;;17.38;64.03;101567.56;6224708;23;19919;-95